Hillandale, Maryland
Current Conditions -  °F | °C
As of 3:55 PM on Friday 31 Oct 2014 (Local Time) from KCGS Reporting Station
Overcast Overcast  
Wind Chill: 54°   Ceiling: 5000
Heat Index: 54°   Visibility: 10mi
Dew Point: 32°   Wind: 3mph
Humidity: 44%   Direction: 20°NNE
Pressure: 29.87"   Gusts: NA
Location:  39.0169°N, 76.9848°W
Report Text: KCGS 311955Z AUTO 02003KT 10SM OVC050 12/00 A2987 RMK AO1
Loading
Personal Weather Stations






























Interactive Weather Map
Tropical Storm Tracking
New forecast layout! Learn more

10-Day Weather Forecast

Advertisements
Track Severe Weather on mobile